createdAt,value
2016-11-14T00:00:06.634Z,79.98
2016-11-14T00:00:28.371Z,80.03
2016-11-14T00:00:50.093Z,80.08
2016-11-14T00:01:11.819Z,80.09
2016-11-14T00:01:33.571Z,80.05
2016-11-14T00:01:55.303Z,79.79
2016-11-14T00:02:17.032Z,79.95
2016-11-14T00:02:38.767Z,79.88
2016-11-14T00:03:00.488Z,79.92
2016-11-14T00:03:22.220Z,80.15
2016-11-14T00:03:43.929Z,79.95
2016-11-14T00:04:05.658Z,80.06
2016-11-14T00:04:53.879Z,79.73
2016-11-14T00:05:15.619Z,79.75
2016-11-14T00:05:37.350Z,79.21
2016-11-14T00:05:59.083Z,78.71
2016-11-14T00:06:20.825Z,78.80
2016-11-14T00:06:42.558Z,78.82
2016-11-14T00:07:04.283Z,78.97
2016-11-14T00:07:26.010Z,79.01
2016-11-14T00:07:47.747Z,79.10
2016-11-14T00:08:09.480Z,78.80
2016-11-14T00:08:31.237Z,78.70
2016-11-14T00:08:52.957Z,78.55
2016-11-14T00:09:14.697Z,78.59
2016-11-14T00:09:36.466Z,78.75
2016-11-14T00:09:58.188Z,79.23
2016-11-14T00:10:19.927Z,79.48
2016-11-14T00:10:41.669Z,79.70
2016-11-14T00:11:03.394Z,79.90
2016-11-14T00:11:25.113Z,79.58
2016-11-14T00:11:46.841Z,79.57
2016-11-14T00:12:09.567Z,79.55
2016-11-14T00:12:31.296Z,79.58
2016-11-14T00:12:53.025Z,79.75
2016-11-14T00:13:14.763Z,79.94
2016-11-14T00:13:36.489Z,80.09
2016-11-14T00:13:58.215Z,80.20
2016-11-14T00:14:19.931Z,80.29
2016-11-14T00:14:41.664Z,80.20
2016-11-14T00:15:03.406Z,80.38
2016-11-14T00:15:25.137Z,80.22
2016-11-14T00:15:47.062Z,80.11
2016-11-14T00:16:08.785Z,80.05
2016-11-14T00:16:30.515Z,79.98
2016-11-14T00:16:52.250Z,79.97
2016-11-14T00:17:13.997Z,79.96
2016-11-14T00:17:35.711Z,80.02
2016-11-14T00:17:57.432Z,80.23
2016-11-14T00:18:19.181Z,80.51
2016-11-14T00:18:40.910Z,80.48
2016-11-14T00:19:02.637Z,80.32
2016-11-14T00:19:24.382Z,80.36
2016-11-14T00:19:46.086Z,80.28
2016-11-14T00:20:07.825Z,80.33
2016-11-14T00:20:29.561Z,80.42
2016-11-14T00:20:51.287Z,80.39
2016-11-14T00:21:13.010Z,80.28
2016-11-14T00:21:34.729Z,80.20
2016-11-14T00:21:56.458Z,80.21
2016-11-14T00:22:18.193Z,80.22
2016-11-14T00:22:39.921Z,80.16
2016-11-14T00:23:01.655Z,80.05
2016-11-14T00:23:23.429Z,80.14
2016-11-14T00:23:45.154Z,80.24
2016-11-14T00:24:06.899Z,80.41
2016-11-14T00:24:28.621Z,80.47
2016-11-14T00:24:50.341Z,80.58
2016-11-14T00:25:12.061Z,80.70
2016-11-14T00:25:33.793Z,80.67
2016-11-14T00:25:55.541Z,80.71
2016-11-14T00:26:17.279Z,80.76
2016-11-14T00:26:39.005Z,80.91
2016-11-14T00:27:00.741Z,80.77
2016-11-14T00:27:22.459Z,80.57
2016-11-14T00:27:44.180Z,80.55
2016-11-14T00:28:05.894Z,80.41
2016-11-14T00:28:27.612Z,80.25
2016-11-14T00:28:49.332Z,80.16
2016-11-14T00:29:11.051Z,80.01
2016-11-14T00:29:32.788Z,80.14
2016-11-14T00:29:54.518Z,80.24
2016-11-14T00:30:16.249Z,80.23
2016-11-14T00:30:37.999Z,80.38
2016-11-14T00:30:59.700Z,80.46
2016-11-14T00:31:21.456Z,80.58
2016-11-14T00:31:43.172Z,80.67
2016-11-14T00:32:04.902Z,80.55
2016-11-14T00:32:26.608Z,80.46
2016-11-14T00:32:48.345Z,80.43
2016-11-14T00:33:10.064Z,80.49
2016-11-14T00:33:31.834Z,80.66
2016-11-14T00:33:53.554Z,80.84
2016-11-14T00:34:15.276Z,80.78
2016-11-14T00:34:36.998Z,80.78
2016-11-14T00:34:58.728Z,80.79
2016-11-14T00:35:20.469Z,80.79
2016-11-14T00:35:42.185Z,80.79
2016-11-14T00:36:03.966Z,80.78
2016-11-14T00:36:25.690Z,80.69
2016-11-14T00:36:47.408Z,80.78
2016-11-14T00:37:09.151Z,80.82
2016-11-14T00:37:30.871Z,80.93
2016-11-14T00:37:52.606Z,81.08
2016-11-14T00:38:14.335Z,81.07
2016-11-14T00:38:36.057Z,80.76
2016-11-14T00:38:57.784Z,80.54
2016-11-14T00:39:19.507Z,80.73
2016-11-14T00:39:41.241Z,80.82
2016-11-14T00:40:02.975Z,80.84
2016-11-14T00:40:24.716Z,80.88
2016-11-14T00:40:46.438Z,80.83
2016-11-14T00:41:08.166Z,80.83
2016-11-14T00:41:29.901Z,80.82
2016-11-14T00:41:51.636Z,80.73
2016-11-14T00:42:13.376Z,80.27
2016-11-14T00:42:35.106Z,80.27
2016-11-14T00:42:56.849Z,80.32
2016-11-14T00:43:18.577Z,80.32
2016-11-14T00:43:40.299Z,80.16
2016-11-14T00:44:02.015Z,80.35
2016-11-14T00:44:23.741Z,80.42
2016-11-14T00:44:45.478Z,80.21
2016-11-14T00:45:07.415Z,80.34
2016-11-14T00:45:29.132Z,80.47
2016-11-14T00:45:50.867Z,80.41
2016-11-14T00:46:12.604Z,80.15
2016-11-14T00:46:34.324Z,79.78
2016-11-14T00:46:57.046Z,79.80
2016-11-14T00:47:18.769Z,79.63
2016-11-14T00:47:40.496Z,79.66
2016-11-14T00:48:02.219Z,79.96
2016-11-14T00:48:23.948Z,79.78
2016-11-14T00:48:45.668Z,79.79
2016-11-14T00:49:07.382Z,80.09
2016-11-14T00:49:29.129Z,80.35
2016-11-14T00:49:50.861Z,79.86
2016-11-14T00:50:12.581Z,80.02
2016-11-14T00:50:34.307Z,79.76
2016-11-14T00:50:56.027Z,79.40
2016-11-14T00:51:17.765Z,79.33
2016-11-14T00:51:39.486Z,79.58
2016-11-14T00:52:01.207Z,79.57
2016-11-14T00:52:22.942Z,79.35
2016-11-14T00:52:44.659Z,78.90
2016-11-14T00:53:06.414Z,78.66
2016-11-14T00:53:28.150Z,78.49
2016-11-14T00:53:49.870Z,78.73
2016-11-14T00:54:11.610Z,79.13
2016-11-14T00:54:33.359Z,79.29
2016-11-14T00:54:55.064Z,79.63
2016-11-14T00:55:16.816Z,79.95
2016-11-14T00:55:38.549Z,80.16
2016-11-14T00:56:00.263Z,80.22
2016-11-14T00:56:21.994Z,80.30
2016-11-14T00:56:43.728Z,80.64
2016-11-14T00:57:05.462Z,80.58
2016-11-14T00:57:27.189Z,80.60
2016-11-14T00:57:48.904Z,80.61
2016-11-14T00:58:15.398Z,80.61
2016-11-14T00:58:37.124Z,80.47
2016-11-14T00:58:58.846Z,80.58
2016-11-14T00:59:20.591Z,80.48
2016-11-14T00:59:42.325Z,80.69
2016-11-14T01:00:04.056Z,80.78
2016-11-14T01:00:25.785Z,80.88
2016-11-14T01:00:47.530Z,81.11
2016-11-14T01:01:09.257Z,81.19
2016-11-14T01:01:30.995Z,81.12
2016-11-14T01:01:52.725Z,80.99
2016-11-14T01:02:14.463Z,81.01
2016-11-14T01:02:36.197Z,81.09
2016-11-14T01:02:57.926Z,81.01
2016-11-14T01:03:19.648Z,80.91
2016-11-14T01:03:41.367Z,81.06
2016-11-14T01:04:03.108Z,81.19
2016-11-14T01:04:24.858Z,81.02
2016-11-14T01:04:46.603Z,80.99
2016-11-14T01:05:08.379Z,81.07
2016-11-14T01:05:30.129Z,81.13
2016-11-14T01:05:51.884Z,81.10
2016-11-14T01:06:13.598Z,81.22
2016-11-14T01:06:35.330Z,81.15
2016-11-14T01:06:57.061Z,81.19
2016-11-14T01:07:18.797Z,81.08
2016-11-14T01:07:40.525Z,80.98
2016-11-14T01:08:02.261Z,81.05
2016-11-14T01:08:23.991Z,81.07
2016-11-14T01:08:45.714Z,80.71
2016-11-14T01:09:07.442Z,80.54
2016-11-14T01:09:34.950Z,80.55
2016-11-14T01:10:02.466Z,80.54
2016-11-14T01:10:25.192Z,80.49
2016-11-14T01:10:46.930Z,80.41
2016-11-14T01:11:08.665Z,80.41
2016-11-14T01:11:56.891Z,80.38
2016-11-14T01:12:18.620Z,80.29
2016-11-14T01:12:40.349Z,80.57
2016-11-14T01:13:02.082Z,80.59
2016-11-14T01:13:23.803Z,80.78
2016-11-14T01:13:45.535Z,80.94
2016-11-14T01:14:07.253Z,80.72
2016-11-14T01:14:28.981Z,80.52
2016-11-14T01:14:50.730Z,80.61
2016-11-14T01:15:12.532Z,80.94
2016-11-14T01:15:34.258Z,80.78
2016-11-14T01:15:56.217Z,80.79
2016-11-14T01:16:17.943Z,80.94
2016-11-14T01:16:39.666Z,81.14
2016-11-14T01:17:01.387Z,81.23
2016-11-14T01:17:23.113Z,81.24
2016-11-14T01:17:45.843Z,80.87
2016-11-14T01:18:07.564Z,80.93
2016-11-14T01:18:29.300Z,81.08
2016-11-14T01:18:51.028Z,81.11
2016-11-14T01:19:12.913Z,80.83
2016-11-14T01:19:34.655Z,80.63
2016-11-14T01:19:56.402Z,80.50
2016-11-14T01:20:18.137Z,80.13
2016-11-14T01:20:39.858Z,79.75
2016-11-14T01:21:01.627Z,79.40
2016-11-14T01:21:23.375Z,79.12
2016-11-14T01:21:45.098Z,78.95
2016-11-14T01:22:06.839Z,79.08
2016-11-14T01:22:28.557Z,79.36
2016-11-14T01:22:50.299Z,79.93
2016-11-14T01:23:12.031Z,79.80
2016-11-14T01:23:33.755Z,79.53
2016-11-14T01:23:55.501Z,79.65
2016-11-14T01:24:17.231Z,79.76
2016-11-14T01:24:38.946Z,79.82
2016-11-14T01:25:00.668Z,80.08
2016-11-14T01:25:22.413Z,80.23
2016-11-14T01:25:44.138Z,80.30
2016-11-14T01:26:05.893Z,80.35
2016-11-14T01:26:27.638Z,80.48
2016-11-14T01:26:49.364Z,80.70
2016-11-14T01:27:11.099Z,80.61
2016-11-14T01:27:33.832Z,80.74
2016-11-14T01:27:55.564Z,80.87
2016-11-14T01:28:17.316Z,80.82
2016-11-14T01:28:39.056Z,80.82
2016-11-14T01:29:00.798Z,80.86
2016-11-14T01:29:22.534Z,80.96
2016-11-14T01:29:44.261Z,80.96
2016-11-14T01:30:05.985Z,81.00
2016-11-14T01:30:27.716Z,81.07
2016-11-14T01:30:49.447Z,81.18
2016-11-14T01:31:11.171Z,81.11
2016-11-14T01:31:32.903Z,80.92
2016-11-14T01:31:54.632Z,80.98
2016-11-14T01:32:16.377Z,80.61
2016-11-14T01:32:38.102Z,80.39
2016-11-14T01:32:59.830Z,80.55
2016-11-14T01:33:21.760Z,80.62
2016-11-14T01:33:43.498Z,80.67
2016-11-14T01:34:05.237Z,80.80
2016-11-14T01:34:26.943Z,80.78
2016-11-14T01:34:48.672Z,80.96
2016-11-14T01:35:10.413Z,80.97
2016-11-14T01:35:32.138Z,80.99
2016-11-14T01:35:53.874Z,80.87
2016-11-14T01:36:15.597Z,80.86
2016-11-14T01:36:37.320Z,80.97
2016-11-14T01:37:00.046Z,81.16
2016-11-14T01:37:21.813Z,80.86
2016-11-14T01:37:43.544Z,80.63
2016-11-14T01:38:05.281Z,80.88
2016-11-14T01:38:27.001Z,80.93
2016-11-14T01:38:48.750Z,80.96
2016-11-14T01:39:10.484Z,81.05
2016-11-14T01:39:32.260Z,81.25
2016-11-14T01:39:53.974Z,81.28
2016-11-14T01:40:15.698Z,81.20
2016-11-14T01:40:37.429Z,81.18
2016-11-14T01:40:59.149Z,80.69
2016-11-14T01:41:20.880Z,80.66
2016-11-14T01:41:42.624Z,80.84
2016-11-14T01:42:04.366Z,80.62
2016-11-14T01:42:26.084Z,80.49
2016-11-14T01:42:47.835Z,80.63
2016-11-14T01:43:09.555Z,80.70
2016-11-14T01:43:31.281Z,80.88
2016-11-14T01:44:19.513Z,80.85
2016-11-14T01:44:41.261Z,80.98
2016-11-14T01:45:02.990Z,81.18
2016-11-14T01:45:24.704Z,81.27
2016-11-14T01:45:46.436Z,81.38
2016-11-14T01:46:08.169Z,80.92
2016-11-14T01:46:29.904Z,80.69
2016-11-14T01:46:51.612Z,80.74
2016-11-14T01:47:13.355Z,80.81
2016-11-14T01:47:35.079Z,80.62
2016-11-14T01:47:56.806Z,80.76
2016-11-14T01:48:18.524Z,80.90
2016-11-14T01:48:40.262Z,80.89
2016-11-14T01:49:01.990Z,81.14
2016-11-14T01:49:23.713Z,81.02
2016-11-14T01:49:45.435Z,80.86
2016-11-14T01:50:07.150Z,80.90
2016-11-14T01:50:28.873Z,81.10
2016-11-14T01:50:50.607Z,81.15
2016-11-14T01:51:12.330Z,81.45
2016-11-14T01:51:34.059Z,81.10
2016-11-14T01:51:55.772Z,80.89
2016-11-14T01:52:17.504Z,80.74
2016-11-14T01:52:39.235Z,80.57
2016-11-14T01:53:00.962Z,80.58
2016-11-14T01:53:22.693Z,80.74
2016-11-14T01:53:44.405Z,80.77
2016-11-14T01:54:06.128Z,80.97
2016-11-14T01:54:27.886Z,81.10
2016-11-14T01:54:49.606Z,81.09
2016-11-14T01:55:11.321Z,81.05
2016-11-14T01:55:33.050Z,81.19
2016-11-14T01:55:54.769Z,81.13
2016-11-14T01:56:16.495Z,81.22
2016-11-14T01:56:38.242Z,81.31
2016-11-14T01:56:59.994Z,81.08
2016-11-14T01:57:21.723Z,81.24
2016-11-14T01:57:43.459Z,81.48
2016-11-14T01:58:05.186Z,81.72
2016-11-14T01:58:26.911Z,81.80
2016-11-14T01:58:48.626Z,81.50
2016-11-14T01:59:10.346Z,81.47
2016-11-14T01:59:32.143Z,81.31
2016-11-14T01:59:53.869Z,81.27
2016-11-14T02:00:20.365Z,81.27
2016-11-14T02:00:42.091Z,81.28
2016-11-14T02:01:03.811Z,81.36
2016-11-14T02:01:25.527Z,81.48
2016-11-14T02:01:47.276Z,81.48
2016-11-14T02:02:08.997Z,81.39
2016-11-14T02:02:30.727Z,81.31
2016-11-14T02:02:52.440Z,81.15
2016-11-14T02:03:14.173Z,80.97
2016-11-14T02:03:35.895Z,80.90
2016-11-14T02:03:57.619Z,80.85
2016-11-14T02:04:19.345Z,80.59
2016-11-14T02:04:41.066Z,80.74
2016-11-14T02:05:02.781Z,80.69
2016-11-14T02:05:24.498Z,80.73
2016-11-14T02:05:46.240Z,80.96
2016-11-14T02:06:07.964Z,81.15
2016-11-14T02:06:29.691Z,81.20
2016-11-14T02:06:51.440Z,80.96
2016-11-14T02:07:13.168Z,80.40
2016-11-14T02:07:34.877Z,80.17
2016-11-14T02:07:56.606Z,80.25
2016-11-14T02:08:18.337Z,80.46
2016-11-14T02:08:40.056Z,80.33
2016-11-14T02:09:01.777Z,80.59
2016-11-14T02:09:26.189Z,80.77
2016-11-14T02:09:47.895Z,80.72
2016-11-14T02:10:09.614Z,80.72
2016-11-14T02:10:31.336Z,80.88
2016-11-14T02:10:53.056Z,81.16
2016-11-14T02:11:14.788Z,81.32
2016-11-14T02:11:36.513Z,81.27
2016-11-14T02:11:58.233Z,81.36
2016-11-14T02:12:19.961Z,81.27
2016-11-14T02:12:41.681Z,81.30
2016-11-14T02:13:03.419Z,81.06
2016-11-14T02:13:25.165Z,81.38
2016-11-14T02:13:46.875Z,81.13
2016-11-14T02:14:08.598Z,80.95
2016-11-14T02:14:35.090Z,80.63
2016-11-14T02:14:56.844Z,80.48
2016-11-14T02:15:18.560Z,80.44
2016-11-14T02:15:40.328Z,80.77
2016-11-14T02:16:02.052Z,80.80
2016-11-14T02:16:23.848Z,80.87
2016-11-14T02:16:48.206Z,81.19
2016-11-14T02:17:09.930Z,81.37
2016-11-14T02:17:31.658Z,81.69
2016-11-14T02:17:53.398Z,81.45
2016-11-14T02:18:15.261Z,81.36
2016-11-14T02:18:39.920Z,81.31
2016-11-14T02:19:01.636Z,81.30
2016-11-14T02:19:23.354Z,81.38
2016-11-14T02:19:45.084Z,81.37
2016-11-14T02:20:06.808Z,81.23
2016-11-14T02:20:28.527Z,81.17
2016-11-14T02:20:50.265Z,81.19
2016-11-14T02:21:12.009Z,80.88
2016-11-14T02:21:33.736Z,80.96
2016-11-14T02:21:55.466Z,81.02
2016-11-14T02:22:17.188Z,81.10
2016-11-14T02:22:38.919Z,80.81
2016-11-14T02:23:00.640Z,80.65
2016-11-14T02:23:22.370Z,80.66
2016-11-14T02:23:44.090Z,81.01
2016-11-14T02:24:05.812Z,80.72
2016-11-14T02:24:27.531Z,80.33
2016-11-14T02:24:49.288Z,80.13
2016-11-14T02:25:11.019Z,79.82
2016-11-14T02:25:32.742Z,79.70
2016-11-14T02:25:54.687Z,79.64
2016-11-14T02:26:19.293Z,79.88
2016-11-14T02:26:41.011Z,80.26
2016-11-14T02:27:02.732Z,80.37
2016-11-14T02:27:24.572Z,80.52
2016-11-14T02:27:46.344Z,80.71
2016-11-14T02:28:08.068Z,80.57
2016-11-14T02:28:29.792Z,80.49
2016-11-14T02:28:51.521Z,80.38
2016-11-14T02:29:13.247Z,79.92
2016-11-14T02:29:34.968Z,79.70
2016-11-14T02:29:56.715Z,79.76
2016-11-14T02:30:18.423Z,80.10
2016-11-14T02:30:40.157Z,80.44
2016-11-14T02:31:02.013Z,80.49
2016-11-14T02:31:23.734Z,80.29
2016-11-14T02:31:45.465Z,80.03
2016-11-14T02:32:07.246Z,79.95
2016-11-14T02:32:28.963Z,80.10
2016-11-14T02:32:50.702Z,80.37
2016-11-14T02:33:12.438Z,80.31
2016-11-14T02:33:34.178Z,80.51
2016-11-14T02:33:55.910Z,80.47
2016-11-14T02:34:17.633Z,80.47
2016-11-14T02:34:39.353Z,80.34
2016-11-14T02:35:01.076Z,80.28
2016-11-14T02:35:22.803Z,80.06
2016-11-14T02:36:18.672Z,80.25
2016-11-14T02:36:40.398Z,80.28
2016-11-14T02:37:02.117Z,80.41
2016-11-14T02:37:23.847Z,80.69
2016-11-14T02:37:45.586Z,80.94
2016-11-14T02:38:07.313Z,80.86
2016-11-14T02:38:29.028Z,80.98
2016-11-14T02:38:50.751Z,80.81
2016-11-14T02:39:12.484Z,80.91
2016-11-14T02:39:34.225Z,81.17
2016-11-14T02:39:55.959Z,81.31
2016-11-14T02:40:17.674Z,81.01
2016-11-14T02:40:39.401Z,81.12
2016-11-14T02:41:01.150Z,80.99
2016-11-14T02:41:22.870Z,81.03
2016-11-14T02:41:44.599Z,81.14
2016-11-14T02:42:06.365Z,81.33
2016-11-14T02:42:28.092Z,81.49
2016-11-14T02:42:49.822Z,81.61
2016-11-14T02:43:11.538Z,81.56
2016-11-14T02:43:33.276Z,81.61
2016-11-14T02:43:54.988Z,81.15
2016-11-14T02:44:16.723Z,80.97
2016-11-14T02:44:38.436Z,80.70
2016-11-14T02:45:00.162Z,80.81
2016-11-14T02:45:21.892Z,81.07
2016-11-14T02:45:43.615Z,80.71
2016-11-14T02:46:05.335Z,81.07
2016-11-14T02:46:27.088Z,81.28
2016-11-14T02:46:48.821Z,81.21
2016-11-14T02:47:11.556Z,81.41
2016-11-14T02:47:33.274Z,81.31
2016-11-14T02:47:55.001Z,80.89
2016-11-14T02:48:16.724Z,80.56
2016-11-14T02:48:38.443Z,80.68
2016-11-14T02:49:00.177Z,80.94
2016-11-14T02:49:21.903Z,81.06
2016-11-14T02:49:43.634Z,80.81
2016-11-14T02:50:05.458Z,81.02
2016-11-14T02:50:27.206Z,80.87
2016-11-14T02:50:48.937Z,80.46
2016-11-14T02:51:15.436Z,80.37
2016-11-14T02:51:37.207Z,79.91
2016-11-14T02:51:58.926Z,79.57
2016-11-14T02:52:20.665Z,79.60
2016-11-14T02:52:42.384Z,79.71
2016-11-14T02:53:04.134Z,80.16
2016-11-14T02:53:25.859Z,80.64
2016-11-14T02:53:47.590Z,80.92
2016-11-14T02:54:09.311Z,81.05
2016-11-14T02:54:31.037Z,81.05
2016-11-14T02:54:52.764Z,80.62
2016-11-14T02:55:14.495Z,80.54
2016-11-14T02:55:36.218Z,80.49
2016-11-14T02:55:57.950Z,80.41
2016-11-14T02:56:19.677Z,80.56
2016-11-14T02:56:41.400Z,80.75
2016-11-14T02:57:03.126Z,80.89
2016-11-14T02:57:24.843Z,80.89
2016-11-14T02:57:46.569Z,81.04
2016-11-14T02:58:08.284Z,81.22
2016-11-14T02:58:30.004Z,81.40
2016-11-14T02:58:51.731Z,81.47
2016-11-14T02:59:13.465Z,81.54
2016-11-14T02:59:35.189Z,81.65
2016-11-14T02:59:56.917Z,81.74
2016-11-14T03:00:19.656Z,81.69
2016-11-14T03:00:46.170Z,81.81
2016-11-14T03:01:07.888Z,81.84
2016-11-14T03:01:29.741Z,82.00
2016-11-14T03:01:51.335Z,82.18
2016-11-14T03:02:13.062Z,82.08
2016-11-14T03:02:34.785Z,82.07
2016-11-14T03:02:56.526Z,82.01
2016-11-14T03:03:18.344Z,82.11
2016-11-14T03:03:40.082Z,81.84
2016-11-14T03:04:01.825Z,81.67
2016-11-14T03:04:23.551Z,81.55
2016-11-14T03:04:45.282Z,81.65
2016-11-14T03:05:07.039Z,81.71
2016-11-14T03:05:28.770Z,81.57
2016-11-14T03:05:50.531Z,81.28
2016-11-14T03:06:12.250Z,81.24
2016-11-14T03:06:33.987Z,80.98
2016-11-14T03:06:55.717Z,80.91
2016-11-14T03:07:17.438Z,80.95
2016-11-14T03:07:39.166Z,80.96
2016-11-14T03:08:00.882Z,80.82
2016-11-14T03:08:22.594Z,80.49
2016-11-14T03:08:44.319Z,80.57
2016-11-14T03:09:06.052Z,80.50
2016-11-14T03:09:27.773Z,80.61
2016-11-14T03:09:49.497Z,80.66
2016-11-14T03:10:11.227Z,80.73
2016-11-14T03:10:32.943Z,80.94
2016-11-14T03:10:54.798Z,80.54
2016-11-14T03:11:16.518Z,80.48
2016-11-14T03:11:38.233Z,80.84
2016-11-14T03:11:59.955Z,81.22
2016-11-14T03:12:21.675Z,81.46
2016-11-14T03:12:43.409Z,81.54
2016-11-14T03:13:05.122Z,81.52
2016-11-14T03:13:26.841Z,81.34
2016-11-14T03:13:48.560Z,81.26
2016-11-14T03:14:10.277Z,81.30
2016-11-14T03:14:32.002Z,81.54
2016-11-14T03:14:53.721Z,81.66
2016-11-14T03:15:15.448Z,81.66
2016-11-14T03:15:37.182Z,81.54
2016-11-14T03:15:58.916Z,81.57
2016-11-14T03:16:20.635Z,81.51
2016-11-14T03:16:42.357Z,81.66
2016-11-14T03:17:04.112Z,81.94
2016-11-14T03:17:25.831Z,82.03
2016-11-14T03:17:47.565Z,82.12
2016-11-14T03:18:09.293Z,82.01
2016-11-14T03:18:31.029Z,81.87
2016-11-14T03:18:52.759Z,81.83
2016-11-14T03:19:14.493Z,81.84
2016-11-14T03:19:36.212Z,81.81
2016-11-14T03:19:57.931Z,81.63
2016-11-14T03:20:19.652Z,81.70
2016-11-14T03:20:41.399Z,81.83
2016-11-14T03:21:03.118Z,81.78
2016-11-14T03:21:24.849Z,81.78
2016-11-14T03:21:46.581Z,81.86
2016-11-14T03:22:08.311Z,81.28
2016-11-14T03:22:30.035Z,80.88
2016-11-14T03:22:51.823Z,80.71
2016-11-14T03:23:14.565Z,80.99
2016-11-14T03:23:36.284Z,81.08
2016-11-14T03:23:58.007Z,81.30
2016-11-14T03:24:19.721Z,81.29
2016-11-14T03:24:41.459Z,81.38
2016-11-14T03:25:03.192Z,81.38
2016-11-14T03:25:24.921Z,81.26
2016-11-14T03:25:46.640Z,81.11
2016-11-14T03:26:08.362Z,81.16
2016-11-14T03:26:30.079Z,80.71
2016-11-14T03:26:51.830Z,80.60
2016-11-14T03:27:13.543Z,80.54
2016-11-14T03:27:35.260Z,80.46
2016-11-14T03:27:56.981Z,80.23
2016-11-14T03:28:18.704Z,80.41
2016-11-14T03:28:40.420Z,80.10
2016-11-14T03:29:02.143Z,79.71
2016-11-14T03:29:23.868Z,79.44
2016-11-14T03:29:45.592Z,79.51
2016-11-14T03:30:07.328Z,79.78
2016-11-14T03:30:29.054Z,80.12
2016-11-14T03:30:50.772Z,79.92
2016-11-14T03:31:12.540Z,79.50
2016-11-14T03:31:34.258Z,79.35
2016-11-14T03:31:55.990Z,79.35
2016-11-14T03:32:17.717Z,79.68
2016-11-14T03:32:39.444Z,80.10
2016-11-14T03:33:01.157Z,80.21
2016-11-14T03:33:22.879Z,80.08
2016-11-14T03:33:44.604Z,80.27
2016-11-14T03:34:11.099Z,80.22
2016-11-14T03:34:32.827Z,79.84
2016-11-14T03:34:54.548Z,79.77
2016-11-14T03:35:16.266Z,79.76
2016-11-14T03:35:37.993Z,79.36
2016-11-14T03:35:59.723Z,79.55
2016-11-14T03:36:21.431Z,79.93
2016-11-14T03:36:43.244Z,80.44
2016-11-14T03:37:07.529Z,80.60
2016-11-14T03:37:29.254Z,80.04
2016-11-14T03:37:51.045Z,79.73
2016-11-14T03:38:12.769Z,79.59
2016-11-14T03:38:34.477Z,79.54
2016-11-14T03:38:56.213Z,79.79
2016-11-14T03:39:17.939Z,80.06
2016-11-14T03:39:39.664Z,80.25
2016-11-14T03:40:01.387Z,80.50
2016-11-14T03:40:23.104Z,80.42
2016-11-14T03:40:44.821Z,80.57
2016-11-14T03:41:06.553Z,80.87
2016-11-14T03:41:28.487Z,81.00
2016-11-14T03:41:50.097Z,80.99
2016-11-14T03:42:11.809Z,81.04
2016-11-14T03:42:33.538Z,81.08
2016-11-14T03:42:55.261Z,81.19
2016-11-14T03:43:16.985Z,81.08
2016-11-14T03:43:38.709Z,80.87
2016-11-14T03:44:00.439Z,80.79
2016-11-14T03:44:25.149Z,80.72
2016-11-14T03:44:46.868Z,80.69
2016-11-14T03:45:08.585Z,80.71
2016-11-14T03:45:30.307Z,80.82
2016-11-14T03:45:52.065Z,80.76
2016-11-14T03:46:13.802Z,80.81
2016-11-14T03:46:35.530Z,80.87
2016-11-14T03:46:57.251Z,80.92
2016-11-14T03:47:18.971Z,80.94
2016-11-14T03:47:40.683Z,81.01
2016-11-14T03:48:02.447Z,81.05
2016-11-14T03:48:24.178Z,81.07
2016-11-14T03:48:45.909Z,81.18
2016-11-14T03:49:07.631Z,81.08
2016-11-14T03:49:29.360Z,81.08
2016-11-14T03:49:51.127Z,81.34
2016-11-14T03:50:12.847Z,81.51
2016-11-14T03:50:34.586Z,81.19
2016-11-14T03:50:56.317Z,81.14
2016-11-14T03:51:18.037Z,81.16
2016-11-14T03:51:39.760Z,81.23
2016-11-14T03:52:01.493Z,81.18
2016-11-14T03:52:23.268Z,81.28
2016-11-14T03:52:44.973Z,81.22
2016-11-14T03:53:06.698Z,81.13
2016-11-14T03:53:28.419Z,81.15
2016-11-14T03:53:50.151Z,81.27
2016-11-14T03:54:11.876Z,81.33
2016-11-14T03:54:33.602Z,81.40
2016-11-14T03:54:55.350Z,81.42
2016-11-14T03:55:17.065Z,81.16
2016-11-14T03:55:38.796Z,80.91
2016-11-14T03:56:00.520Z,80.89
2016-11-14T03:56:22.241Z,80.93
2016-11-14T03:56:44.019Z,80.94
2016-11-14T03:57:05.730Z,80.73
2016-11-14T03:57:27.451Z,80.85
2016-11-14T03:57:49.172Z,81.09
2016-11-14T03:58:10.891Z,81.26
2016-11-14T03:58:32.630Z,81.44
2016-11-14T03:58:54.347Z,81.73
2016-11-14T03:59:16.072Z,81.85
2016-11-14T03:59:37.806Z,81.99
2016-11-14T03:59:59.545Z,82.12
2016-11-14T04:00:21.268Z,82.13
2016-11-14T04:00:42.989Z,82.20
2016-11-14T04:01:04.710Z,82.20
2016-11-14T04:01:26.428Z,82.46
2016-11-14T04:01:48.184Z,82.59
2016-11-14T04:02:09.912Z,82.67
2016-11-14T04:02:31.644Z,82.71
2016-11-14T04:02:53.361Z,82.64
2016-11-14T04:03:41.604Z,81.98
2016-11-14T04:04:03.326Z,81.99
2016-11-14T04:04:25.062Z,81.98
2016-11-14T04:04:46.783Z,81.97
2016-11-14T04:05:08.516Z,81.80
2016-11-14T04:05:35.010Z,81.79
2016-11-14T04:05:56.744Z,81.59
2016-11-14T04:06:18.554Z,81.49
2016-11-14T04:06:40.263Z,81.71
2016-11-14T04:07:01.982Z,81.90
2016-11-14T04:07:23.709Z,82.01
2016-11-14T04:07:45.428Z,82.07
2016-11-14T04:08:07.150Z,81.97
2016-11-14T04:08:28.894Z,81.81
2016-11-14T04:08:50.608Z,81.61
2016-11-14T04:09:12.356Z,81.69
2016-11-14T04:09:34.080Z,81.79
2016-11-14T04:09:55.795Z,81.88
2016-11-14T04:10:17.518Z,81.91
2016-11-14T04:10:39.258Z,81.76
2016-11-14T04:11:00.978Z,81.29
2016-11-14T04:11:22.727Z,80.95
2016-11-14T04:11:44.458Z,80.53
2016-11-14T04:12:06.197Z,80.30
2016-11-14T04:12:27.919Z,80.01
2016-11-14T04:12:49.648Z,79.85
2016-11-14T04:13:11.363Z,79.87
2016-11-14T04:13:33.088Z,80.25
2016-11-14T04:13:54.805Z,80.65
2016-11-14T04:14:16.547Z,80.84
2016-11-14T04:14:38.250Z,80.78
2016-11-14T04:14:59.971Z,80.43
2016-11-14T04:15:21.690Z,80.60
2016-11-14T04:15:43.406Z,80.96
2016-11-14T04:16:05.132Z,81.03
2016-11-14T04:16:26.863Z,81.01
2016-11-14T04:16:48.588Z,81.28
2016-11-14T04:17:10.322Z,81.29
2016-11-14T04:17:32.043Z,81.12
2016-11-14T04:17:53.776Z,81.31
2016-11-14T04:18:15.499Z,81.41
2016-11-14T04:18:37.228Z,81.51
2016-11-14T04:18:59.092Z,81.63
2016-11-14T04:19:20.816Z,81.79
2016-11-14T04:19:42.542Z,81.87
2016-11-14T04:20:04.270Z,81.59
2016-11-14T04:20:25.993Z,81.71
2016-11-14T04:20:47.715Z,81.77
2016-11-14T04:21:09.428Z,81.86
2016-11-14T04:21:31.161Z,82.10
2016-11-14T04:21:52.887Z,82.29
2016-11-14T04:22:14.604Z,82.40
2016-11-14T04:22:36.328Z,82.35
2016-11-14T04:22:58.053Z,82.44
2016-11-14T04:23:19.771Z,82.10
2016-11-14T04:23:41.500Z,81.68
2016-11-14T04:24:03.221Z,81.13
2016-11-14T04:24:24.939Z,81.05
2016-11-14T04:24:46.665Z,81.22
2016-11-14T04:25:08.389Z,81.25
2016-11-14T04:25:30.109Z,81.29
2016-11-14T04:25:51.826Z,81.27
2016-11-14T04:26:13.569Z,81.40
2016-11-14T04:26:35.300Z,81.54
2016-11-14T04:26:57.025Z,81.74
2016-11-14T04:27:18.744Z,81.75
2016-11-14T04:27:40.473Z,82.01
2016-11-14T04:28:02.220Z,82.22
2016-11-14T04:28:23.960Z,82.30
2016-11-14T04:28:45.683Z,82.28
2016-11-14T04:29:07.411Z,82.29
2016-11-14T04:29:29.145Z,82.34
2016-11-14T04:29:50.864Z,82.32
2016-11-14T04:30:12.581Z,82.36
2016-11-14T04:30:34.314Z,82.20
2016-11-14T04:30:56.032Z,82.23
2016-11-14T04:31:17.754Z,82.18
2016-11-14T04:31:39.479Z,82.30
2016-11-14T04:32:01.197Z,82.31
2016-11-14T04:32:22.916Z,81.68
2016-11-14T04:32:44.641Z,81.32
2016-11-14T04:33:06.367Z,80.98
2016-11-14T04:33:28.092Z,80.97
2016-11-14T04:33:49.814Z,81.13
2016-11-14T04:34:11.542Z,81.09
2016-11-14T04:34:33.268Z,81.16
2016-11-14T04:34:55.005Z,81.28
2016-11-14T04:35:16.736Z,81.05
2016-11-14T04:35:38.476Z,81.00
2016-11-14T04:36:00.179Z,81.14
2016-11-14T04:36:21.934Z,81.48
2016-11-14T04:36:43.662Z,81.68
2016-11-14T04:37:05.381Z,81.55
2016-11-14T04:37:27.111Z,81.58
2016-11-14T04:37:48.832Z,81.40
2016-11-14T04:38:10.558Z,81.11
2016-11-14T04:38:32.289Z,80.98
2016-11-14T04:38:54.008Z,81.19
2016-11-14T04:39:15.740Z,81.38
2016-11-14T04:39:37.463Z,81.26
2016-11-14T04:39:59.188Z,81.20
2016-11-14T04:40:20.915Z,81.22
2016-11-14T04:40:42.636Z,81.21
2016-11-14T04:41:04.361Z,81.15
2016-11-14T04:41:26.091Z,81.18
2016-11-14T04:41:47.926Z,81.15
2016-11-14T04:42:09.647Z,81.27
2016-11-14T04:42:31.364Z,81.48
2016-11-14T04:42:53.092Z,81.32
2016-11-14T04:43:14.828Z,81.08